createdAt,value
2018-04-30T00:01:17.001Z,95206.41
2018-04-30T00:03:43.006Z,95207.22
2018-04-30T00:06:09.017Z,95211.94
2018-04-30T00:08:35.024Z,95219.83
2018-04-30T00:11:01.031Z,95221.20
2018-04-30T00:13:27.064Z,95225.34
2018-04-30T00:15:53.070Z,95221.81
2018-04-30T00:18:19.050Z,95219.45
2018-04-30T00:20:45.060Z,95216.28
2018-04-30T00:23:11.071Z,95210.76
2018-04-30T00:25:37.118Z,95216.02
2018-04-30T00:28:03.091Z,95209.72
2018-04-30T00:30:29.093Z,95212.08
2018-04-30T00:32:55.132Z,95216.02
2018-04-30T00:35:21.170Z,95215.81
2018-04-30T00:37:47.138Z,95212.08
2018-04-30T00:40:13.148Z,95214.23
2018-04-30T00:42:39.153Z,95209.72
2018-04-30T00:45:05.192Z,95217.20
2018-04-30T00:47:31.170Z,95218.17
2018-04-30T00:49:57.167Z,95216.39
2018-04-30T00:52:23.183Z,95217.77
2018-04-30T00:54:49.215Z,95216.59
2018-04-30T00:57:15.206Z,95216.19
2018-04-30T00:59:41.208Z,95216.59
2018-04-30T01:02:07.222Z,95212.45
2018-04-30T01:04:33.223Z,95216.76
2018-04-30T01:06:59.239Z,95221.31
2018-04-30T01:09:25.251Z,95213.02
2018-04-30T01:11:51.264Z,95208.06
2018-04-30T01:14:17.273Z,95206.69
2018-04-30T01:16:43.283Z,95207.09
2018-04-30T01:19:09.290Z,95204.33
2018-04-30T01:21:35.289Z,95201.73
2018-04-30T01:24:01.299Z,95198.20
2018-04-30T01:26:27.313Z,95200.76
2018-04-30T01:28:53.318Z,95203.72
2018-04-30T01:31:19.327Z,95193.25
2018-04-30T01:33:45.337Z,95197.22
2018-04-30T01:36:11.334Z,95203.89
2018-04-30T01:38:37.367Z,95197.80
2018-04-30T01:41:03.373Z,95196.01
2018-04-30T01:43:29.374Z,95191.30
2018-04-30T01:45:55.409Z,95191.46
2018-04-30T01:48:21.416Z,95193.82
2018-04-30T01:50:47.455Z,95197.80
2018-04-30T01:53:13.462Z,95193.41
2018-04-30T01:55:39.470Z,95197.56
2018-04-30T01:58:05.470Z,95200.32
2018-04-30T02:00:31.505Z,95202.30
2018-04-30T02:02:57.508Z,95205.07
2018-04-30T02:05:23.521Z,95200.92
2018-04-30T02:07:49.573Z,95196.38
2018-04-30T02:10:15.582Z,95185.33
2018-04-30T02:12:41.620Z,95186.31
2018-04-30T02:15:07.590Z,95186.88
2018-04-30T02:17:33.615Z,95189.64
2018-04-30T02:19:59.626Z,95191.43
2018-04-30T02:22:25.682Z,95191.59
2018-04-30T02:24:51.686Z,95197.53
2018-04-30T02:27:17.686Z,95193.18
2018-04-30T02:29:43.700Z,95188.84
2018-04-30T02:32:09.760Z,95192.61
2018-04-30T02:34:35.737Z,95190.83
2018-04-30T02:37:01.742Z,95189.04
2018-04-30T02:39:27.775Z,95183.11
2018-04-30T02:41:53.794Z,95186.28
2018-04-30T02:44:19.865Z,95184.09
2018-04-30T02:46:45.862Z,95184.48
2018-04-30T02:49:11.872Z,95189.20
2018-04-30T02:51:37.891Z,95188.63
2018-04-30T02:54:03.942Z,95185.06
2018-04-30T02:56:29.954Z,95183.69
2018-04-30T02:58:55.963Z,95186.45
2018-04-30T03:01:21.972Z,95188.43
2018-04-30T03:03:48.012Z,95192.58
2018-04-30T03:06:14.005Z,95189.81
2018-04-30T03:08:40.014Z,95191.36
2018-04-30T03:11:06.013Z,95185.84
2018-04-30T03:13:32.022Z,95190.79
2018-04-30T03:15:58.032Z,95190.79
2018-04-30T03:18:24.054Z,95190.15
2018-04-30T03:20:50.049Z,95186.01
2018-04-30T03:23:16.064Z,95191.16
2018-04-30T03:25:42.062Z,95187.39
2018-04-30T03:28:08.072Z,95188.97
2018-04-30T03:30:34.086Z,95190.35
2018-04-30T03:33:00.091Z,95192.14
2018-04-30T03:35:26.129Z,95195.47
2018-04-30T03:37:52.094Z,95197.26
2018-04-30T03:40:18.189Z,95195.47
2018-04-30T03:42:44.199Z,95200.59
2018-04-30T03:45:10.207Z,95202.95
2018-04-30T03:47:36.213Z,95206.69
2018-04-30T03:50:02.224Z,95206.12
2018-04-30T03:52:28.225Z,95203.92
2018-04-30T03:54:54.261Z,95206.89
2018-04-30T03:57:20.265Z,95208.67
2018-04-30T03:59:46.271Z,95203.73
2018-04-30T04:02:12.302Z,95211.44
2018-04-30T04:04:38.354Z,95207.70
2018-04-30T04:07:04.358Z,95216.76
2018-04-30T04:09:30.357Z,95217.94
2018-04-30T04:11:56.365Z,95216.59
2018-04-30T04:14:22.409Z,95213.59
2018-04-30T04:16:48.421Z,95211.84
2018-04-30T04:19:14.458Z,95213.59
2018-04-30T04:21:40.504Z,95216.36
2018-04-30T04:24:06.512Z,95218.75
2018-04-30T04:26:32.552Z,95226.02
2018-04-30T04:28:58.553Z,95220.13
2018-04-30T04:31:24.594Z,95220.70
2018-04-30T04:33:50.787Z,95218.75
2018-04-30T04:36:16.769Z,95217.16
2018-04-30T04:38:42.776Z,95219.16
2018-04-30T04:41:08.782Z,95215.81
2018-04-30T04:43:34.781Z,95221.75
2018-04-30T04:46:00.834Z,95226.29
2018-04-30T04:48:26.895Z,95223.73
2018-04-30T04:50:52.906Z,95222.42
2018-04-30T04:53:18.914Z,95226.97
2018-04-30T04:55:44.962Z,95226.56
2018-04-30T04:58:10.976Z,95224.20
2018-04-30T05:00:37.013Z,95227.17
2018-04-30T05:03:02.977Z,95229.93
2018-04-30T05:05:28.983Z,95238.83
2018-04-30T05:07:55.011Z,95236.84
2018-04-30T05:10:21.023Z,95242.36
2018-04-30T05:12:47.094Z,95239.77
2018-04-30T05:15:13.098Z,95245.46
2018-04-30T05:17:39.126Z,95246.47
2018-04-30T05:20:05.140Z,95248.59
2018-04-30T05:22:31.116Z,95248.42
2018-04-30T05:24:57.150Z,95247.45
2018-04-30T05:27:23.135Z,95241.11
2018-04-30T05:29:49.170Z,95240.55
2018-04-30T05:32:15.155Z,95231.45
2018-04-30T05:34:41.160Z,95235.80
2018-04-30T05:37:07.184Z,95231.84
2018-04-30T05:39:33.200Z,95233.03
2018-04-30T05:41:59.212Z,95234.81
2018-04-30T05:44:25.216Z,95240.95
2018-04-30T05:46:51.254Z,95237.17
2018-04-30T05:49:17.253Z,95229.89
2018-04-30T05:51:43.284Z,95235.80
2018-04-30T05:54:09.340Z,95241.72
2018-04-30T05:56:35.344Z,95237.00
2018-04-30T05:59:01.354Z,95239.36
2018-04-30T06:01:27.376Z,95240.17
2018-04-30T06:03:53.384Z,95234.65
2018-04-30T06:06:19.385Z,95239.94
2018-04-30T06:08:45.398Z,95239.33
2018-04-30T06:11:11.439Z,95240.91
2018-04-30T06:13:37.428Z,95239.30
2018-04-30T06:16:03.471Z,95251.12
2018-04-30T06:18:29.478Z,95247.95
2018-04-30T06:20:55.457Z,95250.71
2018-04-30T06:23:21.465Z,95254.05
2018-04-30T06:25:47.471Z,95248.12
2018-04-30T06:28:13.510Z,95248.12
2018-04-30T06:30:39.520Z,95251.89
2018-04-30T06:33:05.532Z,95244.98
2018-04-30T06:35:31.538Z,95237.67
2018-04-30T06:37:57.551Z,95243.60
2018-04-30T06:40:23.594Z,95246.16
2018-04-30T06:42:49.594Z,95245.09
2018-04-30T06:45:15.596Z,95242.73
2018-04-30T06:47:41.608Z,95239.44
2018-04-30T06:50:07.610Z,95241.22
2018-04-30T06:52:33.646Z,95238.28
2018-04-30T06:54:59.653Z,95231.58
2018-04-30T06:57:25.663Z,95237.11
2018-04-30T06:59:51.671Z,95231.81
2018-04-30T07:02:17.685Z,95233.37
2018-04-30T07:04:43.716Z,95233.20
2018-04-30T07:07:09.740Z,95231.01
2018-04-30T07:09:35.971Z,95231.17
2018-04-30T07:12:01.802Z,95228.41
2018-04-30T07:14:27.807Z,95231.17
2018-04-30T07:16:53.817Z,95224.88
2018-04-30T07:19:19.841Z,95219.72
2018-04-30T07:21:45.857Z,95214.80
2018-04-30T07:24:11.893Z,95208.10
2018-04-30T07:26:37.874Z,95211.84
2018-04-30T07:29:03.886Z,95216.96
2018-04-30T07:31:29.894Z,95216.39
2018-04-30T07:33:55.909Z,95213.45
2018-04-30T07:36:21.954Z,95207.13
2018-04-30T07:38:47.934Z,95209.72
2018-04-30T07:41:13.945Z,95215.05
2018-04-30T07:43:39.954Z,95211.73
2018-04-30T07:46:05.952Z,95213.92
2018-04-30T07:48:31.957Z,95208.97
2018-04-30T07:50:57.996Z,95203.65
2018-04-30T07:53:23.973Z,95206.41
2018-04-30T07:55:49.995Z,95196.34
2018-04-30T07:58:16.025Z,95198.93
2018-04-30T08:00:42.039Z,95199.11
2018-04-30T08:03:08.220Z,95195.77
2018-04-30T08:05:34.202Z,95195.77
2018-04-30T08:08:00.214Z,95191.22
2018-04-30T08:10:26.272Z,95195.70
2018-04-30T08:12:52.323Z,95182.87
2018-04-30T08:15:18.360Z,95185.63
2018-04-30T08:17:44.333Z,95178.32
2018-04-30T08:20:10.441Z,95179.70
2018-04-30T08:22:36.480Z,95180.30
2018-04-30T08:25:02.455Z,95179.33
2018-04-30T08:27:28.454Z,95169.26
2018-04-30T08:29:54.500Z,95170.23
2018-04-30T08:32:20.560Z,95167.88
2018-04-30T08:34:46.590Z,95164.71
2018-04-30T08:37:12.641Z,95159.36
2018-04-30T08:39:38.692Z,95150.32
2018-04-30T08:42:04.732Z,95155.05
2018-04-30T08:44:30.742Z,95157.00
2018-04-30T08:46:56.752Z,95141.63
2018-04-30T08:49:22.809Z,95141.80
2018-04-30T08:51:48.791Z,95137.09
2018-04-30T08:54:14.828Z,95135.47
2018-04-30T08:56:40.850Z,95134.33
2018-04-30T08:59:06.894Z,95136.69
2018-04-30T09:01:32.939Z,95134.33
2018-04-30T09:03:58.919Z,95129.38
2018-04-30T09:06:24.921Z,95134.90
2018-04-30T09:08:50.936Z,95134.49
2018-04-30T09:11:16.943Z,95125.06
2018-04-30T09:13:42.950Z,95124.83
2018-04-30T09:16:08.965Z,95121.09
2018-04-30T09:18:35.004Z,95119.50
2018-04-30T09:21:01.031Z,95107.84
2018-04-30T09:23:27.010Z,95111.02
2018-04-30T09:25:53.020Z,95105.89
2018-04-30T09:28:19.024Z,95104.31
2018-04-30T09:30:45.044Z,95102.53
2018-04-30T09:33:11.078Z,95098.78
2018-04-30T09:35:37.050Z,95103.91
2018-04-30T09:38:03.053Z,95096.80
2018-04-30T09:40:29.094Z,95093.47
2018-04-30T09:42:55.076Z,95085.98
2018-04-30T09:45:21.123Z,95084.20
2018-04-30T09:47:47.164Z,95088.17
2018-04-30T09:50:13.139Z,95083.02
2018-04-30T09:52:39.148Z,95077.13
2018-04-30T09:55:05.153Z,95077.30
2018-04-30T09:57:31.160Z,95072.17
2018-04-30T09:59:57.186Z,95071.19
2018-04-30T10:02:23.201Z,95072.57
2018-04-30T10:04:49.258Z,95068.43
2018-04-30T10:07:15.270Z,95066.24
2018-04-30T10:09:41.240Z,95066.24
2018-04-30T10:12:07.254Z,95061.13
2018-04-30T10:14:33.256Z,95058.36
2018-04-30T10:16:59.278Z,95060.14
2018-04-30T10:19:25.280Z,95058.56
2018-04-30T10:21:51.292Z,95057.38
2018-04-30T10:24:17.318Z,95055.02
2018-04-30T10:26:43.317Z,95046.13
2018-04-30T10:29:09.398Z,95044.34
2018-04-30T10:31:35.479Z,95050.13
2018-04-30T10:34:01.393Z,95047.52
2018-04-30T10:36:27.399Z,95042.97
2018-04-30T10:38:53.440Z,95047.71
2018-04-30T10:41:19.445Z,95038.45
2018-04-30T10:43:45.450Z,95033.50
2018-04-30T10:46:11.455Z,95029.35
2018-04-30T10:48:37.461Z,95022.65
2018-04-30T10:51:03.487Z,95023.83
2018-04-30T10:53:29.494Z,95018.10
2018-04-30T10:55:55.510Z,95018.50
2018-04-30T10:58:21.515Z,95018.91
2018-04-30T11:00:47.530Z,95016.72
2018-04-30T11:03:13.536Z,95016.34
2018-04-30T11:05:39.589Z,95017.73
2018-04-30T11:08:05.592Z,95016.12
2018-04-30T11:10:31.666Z,95013.56
2018-04-30T11:12:57.676Z,95017.09
2018-04-30T11:15:23.692Z,95013.33
2018-04-30T11:17:49.730Z,95007.80
2018-04-30T11:20:15.701Z,95010.97
2018-04-30T11:22:41.893Z,95009.02
2018-04-30T11:25:07.857Z,95002.11
2018-04-30T11:27:33.985Z,95002.28
2018-04-30T11:32:54.314Z,95001.47
2018-04-30T11:35:20.319Z,94997.33
2018-04-30T11:37:46.324Z,94988.67
2018-04-30T11:40:12.301Z,94994.97
2018-04-30T11:42:38.308Z,94984.53
2018-04-30T11:45:04.354Z,94986.28
2018-04-30T11:47:30.325Z,94986.69
2018-04-30T11:49:56.306Z,94989.65
2018-04-30T11:52:22.304Z,94976.84
2018-04-30T11:54:48.325Z,94982.57
2018-04-30T11:57:14.309Z,94976.84
2018-04-30T11:59:40.256Z,94973.30
2018-04-30T12:02:06.366Z,94968.36
2018-04-30T12:04:32.347Z,94965.22
2018-04-30T12:06:58.330Z,94965.80
2018-04-30T12:09:24.326Z,94960.67
2018-04-30T12:11:50.465Z,94957.30
2018-04-30T12:14:16.458Z,94958.48
2018-04-30T12:16:42.469Z,94952.39
2018-04-30T12:19:08.461Z,94949.63
2018-04-30T12:21:34.407Z,94945.66
2018-04-30T12:24:00.388Z,94947.61
2018-04-30T12:26:26.418Z,94947.84
2018-04-30T12:28:52.446Z,94951.98
2018-04-30T12:31:18.426Z,94948.99
2018-04-30T12:33:44.410Z,94947.23
2018-04-30T12:36:10.446Z,94945.86
2018-04-30T12:38:36.370Z,94939.13
2018-04-30T12:41:02.338Z,94939.13
2018-04-30T12:43:28.350Z,94932.63
2018-04-30T12:45:54.323Z,94930.84
2018-04-30T12:48:20.311Z,94929.63
2018-04-30T12:50:46.355Z,94924.72
2018-04-30T12:53:12.270Z,94919.39
2018-04-30T12:55:38.327Z,94919.56
2018-04-30T12:58:04.343Z,94918.98
2018-04-30T13:00:30.329Z,94921.17
2018-04-30T13:02:56.273Z,94916.03
2018-04-30T13:05:22.268Z,94917.01
2018-04-30T13:07:48.285Z,94909.32
2018-04-30T13:10:14.264Z,94913.47
2018-04-30T13:12:40.248Z,94911.51
2018-04-30T13:15:06.252Z,94912.46
2018-04-30T13:17:32.260Z,94914.24
2018-04-30T13:19:58.283Z,94917.58
2018-04-30T13:22:24.242Z,94913.03
2018-04-30T13:24:50.219Z,94916.78
2018-04-30T13:27:16.192Z,94911.05
2018-04-30T13:29:42.183Z,94908.29
2018-04-30T13:32:08.157Z,94906.91
2018-04-30T13:34:34.175Z,94902.59
2018-04-30T13:37:00.186Z,94904.93
2018-04-30T13:39:26.142Z,94905.70
2018-04-30T13:41:52.161Z,94904.33
2018-04-30T13:44:18.118Z,94902.36
2018-04-30T13:46:44.108Z,94905.55
2018-04-30T13:49:10.085Z,94894.33
2018-04-30T13:51:36.092Z,94893.33
2018-04-30T13:54:02.105Z,94895.31
2018-04-30T13:56:28.084Z,94895.72
2018-04-30T13:58:54.118Z,94895.31
2018-04-30T14:01:20.115Z,94895.89
2018-04-30T14:03:46.049Z,94895.31
2018-04-30T14:06:12.026Z,94894.70
2018-04-30T14:08:38.034Z,94896.69
2018-04-30T14:11:03.991Z,94891.94
2018-04-30T14:13:29.961Z,94890.77
2018-04-30T14:15:56.010Z,94889.79
2018-04-30T14:18:21.916Z,94889.96
2018-04-30T14:20:47.906Z,94894.10
2018-04-30T14:23:13.911Z,94894.51
2018-04-30T14:25:39.893Z,94896.47
2018-04-30T14:28:05.873Z,94896.06
2018-04-30T14:30:31.855Z,94893.30
2018-04-30T14:32:57.834Z,94894.51
2018-04-30T14:35:23.932Z,94890.94
2018-04-30T14:37:49.884Z,94889.39
2018-04-30T14:40:15.898Z,94888.98
2018-04-30T14:42:41.844Z,94886.80
2018-04-30T14:45:07.838Z,94892.72
2018-04-30T14:47:33.850Z,94885.64
2018-04-30T14:49:59.796Z,94888.98
2018-04-30T14:52:25.806Z,94887.60
2018-04-30T14:54:51.760Z,94889.16
2018-04-30T14:57:17.772Z,94881.27
2018-04-30T14:59:43.777Z,94892.15
2018-04-30T15:02:09.788Z,94888.03
2018-04-30T15:04:35.753Z,94883.89
2018-04-30T15:07:01.769Z,94882.13
2018-04-30T15:09:27.729Z,94879.16
2018-04-30T15:11:53.706Z,94886.25
2018-04-30T15:14:19.686Z,94881.70
2018-04-30T15:16:45.664Z,94883.08
2018-04-30T15:19:11.661Z,94886.25
2018-04-30T15:21:37.642Z,94881.52
2018-04-30T15:24:03.649Z,94883.72
2018-04-30T15:26:29.638Z,94876.02
2018-04-30T15:28:55.601Z,94877.81
2018-04-30T15:31:21.592Z,94875.07
2018-04-30T15:33:47.569Z,94875.70
2018-04-30T15:36:13.622Z,94868.56
2018-04-30T15:38:39.567Z,94869.40
2018-04-30T15:41:05.556Z,94874.72
2018-04-30T15:43:31.598Z,94869.60
2018-04-30T15:45:57.571Z,94870.00
2018-04-30T15:48:23.523Z,94877.48
2018-04-30T15:50:49.570Z,94872.36
2018-04-30T15:53:15.550Z,94862.30
2018-04-30T15:55:41.532Z,94860.28
2018-04-30T15:58:07.508Z,94859.67
2018-04-30T16:00:33.482Z,94864.22
2018-04-30T16:02:59.466Z,94861.89
2018-04-30T16:05:25.466Z,94867.24
2018-04-30T16:07:51.486Z,94868.62
2018-04-30T16:10:17.493Z,94866.86
2018-04-30T16:12:43.486Z,94868.64
2018-04-30T16:15:09.609Z,94871.58
2018-04-30T16:17:35.585Z,94872.05
2018-04-30T16:20:01.606Z,94877.75
2018-04-30T16:22:27.540Z,94877.70
2018-04-30T16:24:53.708Z,94879.70
2018-04-30T16:27:19.786Z,94877.94
2018-04-30T16:29:45.884Z,94877.53
2018-04-30T16:32:11.917Z,94886.39
2018-04-30T16:34:37.925Z,94885.02
2018-04-30T16:37:03.937Z,94885.59
2018-04-30T16:39:29.942Z,94888.18
2018-04-30T16:41:55.922Z,94891.19
2018-04-30T16:44:21.914Z,94893.17
2018-04-30T16:46:47.857Z,94901.06
2018-04-30T16:49:13.856Z,94906.36
2018-04-30T16:51:39.840Z,94905.66
2018-04-30T16:54:05.871Z,94912.56
2018-04-30T16:56:31.865Z,94916.13
2018-04-30T16:58:57.925Z,94917.88
2018-04-30T17:01:23.920Z,94921.42
2018-04-30T17:03:49.958Z,94925.19
2018-04-30T17:06:15.934Z,94930.95
2018-04-30T17:08:41.909Z,94929.56
2018-04-30T17:11:07.865Z,94928.59
2018-04-30T17:13:33.863Z,94931.92
2018-04-30T17:15:59.949Z,94931.55
2018-04-30T17:18:26.172Z,94932.75
2018-04-30T17:20:52.193Z,94937.91
2018-04-30T17:23:18.202Z,94940.46
2018-04-30T17:25:44.211Z,94940.84
2018-04-30T17:28:10.197Z,94940.64
2018-04-30T17:30:36.215Z,94942.77
2018-04-30T17:33:02.165Z,94943.15
2018-04-30T17:35:28.143Z,94951.41
2018-04-30T17:37:54.129Z,94949.83
2018-04-30T17:40:20.141Z,94954.91
2018-04-30T17:42:46.152Z,94955.86
2018-04-30T17:45:12.101Z,94956.06
2018-04-30T17:47:38.075Z,94956.46
2018-04-30T17:50:04.184Z,94956.84
2018-04-30T17:52:30.162Z,94959.83
2018-04-30T17:54:56.141Z,94948.37
2018-04-30T17:57:22.129Z,94961.46
2018-04-30T17:59:48.100Z,94961.46
2018-04-30T18:02:14.111Z,94968.17
2018-04-30T18:04:40.132Z,94962.44
2018-04-30T18:07:06.139Z,94960.88
2018-04-30T18:09:32.073Z,94960.88
2018-04-30T18:11:58.083Z,94968.97
2018-04-30T18:14:24.037Z,94961.48
2018-04-30T18:16:50.030Z,94963.87
2018-04-30T18:19:16.087Z,94967.64
2018-04-30T18:21:42.106Z,94968.25
2018-04-30T18:24:08.108Z,94970.78
2018-04-30T18:26:34.169Z,94968.19
2018-04-30T18:29:00.069Z,94968.37
2018-04-30T18:31:26.058Z,94974.06
2018-04-30T18:33:52.078Z,94974.84
2018-04-30T18:36:18.032Z,94974.67
2018-04-30T18:38:44.093Z,94972.14
2018-04-30T18:41:10.009Z,94977.89
2018-04-30T18:43:35.994Z,94981.83
2018-04-30T18:46:01.977Z,94981.66
2018-04-30T18:48:28.035Z,94981.86
2018-04-30T18:50:54.057Z,94982.66
2018-04-30T18:53:20.004Z,94979.88
2018-04-30T18:55:45.978Z,94988.36
2018-04-30T18:58:11.961Z,94987.21
2018-04-30T19:00:37.971Z,94985.02
2018-04-30T19:03:03.944Z,94998.27
2018-04-30T19:05:29.926Z,94988.02
2018-04-30T19:07:55.957Z,94988.59
2018-04-30T19:10:21.884Z,94991.36
2018-04-30T19:12:47.904Z,94991.92
2018-04-30T19:15:13.887Z,94994.29
2018-04-30T19:17:39.864Z,94990.95
2018-04-30T19:20:05.887Z,95000.45
2018-04-30T19:22:31.869Z,94994.92
2018-04-30T19:24:57.819Z,94993.91
2018-04-30T19:27:23.829Z,95002.03
2018-04-30T19:29:49.798Z,94998.86
2018-04-30T19:32:15.817Z,95005.20
2018-04-30T19:34:41.814Z,95005.59
2018-04-30T19:37:07.874Z,95011.13
2018-04-30T19:39:34.316Z,95009.74
2018-04-30T19:42:00.348Z,95008.77
2018-04-30T19:44:26.290Z,95005.59
2018-04-30T19:46:52.268Z,95010.14
2018-04-30T19:49:18.251Z,95007.55
2018-04-30T19:51:44.226Z,95013.89
2018-04-30T19:54:10.207Z,95022.17
2018-04-30T19:56:36.261Z,95012.27
2018-04-30T19:59:02.213Z,95021.95
2018-04-30T20:01:28.193Z,95020.97
2018-04-30T20:03:54.181Z,95022.92
2018-04-30T20:06:20.164Z,95022.34
2018-04-30T20:08:46.182Z,95021.55
2018-04-30T20:11:12.126Z,95019.58
2018-04-30T20:13:38.156Z,95019.01
2018-04-30T20:16:04.135Z,95024.13
2018-04-30T20:18:30.120Z,95020.42
2018-04-30T20:20:56.129Z,95028.48
2018-04-30T20:23:22.131Z,95027.50
2018-04-30T20:25:48.155Z,95025.92
2018-04-30T20:28:14.130Z,95029.86
2018-04-30T20:30:40.112Z,95028.10
2018-04-30T20:33:06.093Z,95031.06
2018-04-30T20:35:32.079Z,95025.71
2018-04-30T20:37:58.135Z,95025.11
2018-04-30T20:40:24.036Z,95028.68
2018-04-30T20:42:50.058Z,95019.98
2018-04-30T20:45:16.033Z,95022.15
2018-04-30T20:47:42.018Z,95025.89
2018-04-30T20:50:08.056Z,95025.48
2018-04-30T20:52:34.062Z,95027.27
2018-04-30T20:55:00.005Z,95025.48
2018-04-30T20:57:25.982Z,95030.98
2018-04-30T20:59:51.990Z,95029.98
2018-04-30T21:02:17.930Z,95030.96
2018-04-30T21:04:43.907Z,95032.11
2018-04-30T21:07:09.957Z,95025.20
2018-04-30T21:09:35.901Z,95029.55
2018-04-30T21:12:01.902Z,95031.51
2018-04-30T21:14:27.888Z,95031.10
2018-04-30T21:16:53.871Z,95031.31
2018-04-30T21:19:19.878Z,95031.69
2018-04-30T21:21:45.854Z,95030.87
2018-04-30T21:24:11.815Z,95029.88
2018-04-30T21:26:37.832Z,95036.38
2018-04-30T21:29:03.816Z,95038.13
2018-04-30T21:31:29.815Z,95038.91
2018-04-30T21:33:55.839Z,95039.91
2018-04-30T21:36:21.853Z,95040.49
2018-04-30T21:38:47.843Z,95042.45
2018-04-30T21:41:13.810Z,95049.35
2018-04-30T21:43:39.886Z,95052.69
2018-04-30T21:46:05.902Z,95052.89
2018-04-30T21:48:31.848Z,95055.25
2018-04-30T21:50:58.001Z,95062.16
2018-04-30T21:53:23.978Z,95065.06
2018-04-30T21:55:50.098Z,95068.23
2018-04-30T21:58:16.255Z,95072.98
2018-04-30T22:00:42.234Z,95075.53
2018-04-30T22:03:08.271Z,95077.49
2018-04-30T22:05:34.254Z,95080.45
2018-04-30T22:08:00.250Z,95079.66
2018-04-30T22:10:26.232Z,95080.62
2018-04-30T22:12:52.210Z,95084.77
2018-04-30T22:15:18.187Z,95084.97
2018-04-30T22:17:44.452Z,95079.45
2018-04-30T22:20:10.408Z,95081.81
2018-04-30T22:22:36.411Z,95080.03
2018-04-30T22:25:02.437Z,95080.20
2018-04-30T22:27:28.413Z,95081.98
2018-04-30T22:29:54.367Z,95080.20
2018-04-30T22:32:20.390Z,95079.63
2018-04-30T22:34:46.378Z,95081.58
2018-04-30T22:37:12.377Z,95077.64
2018-04-30T22:39:38.358Z,95070.33
2018-04-30T22:42:04.336Z,95073.49
2018-04-30T22:44:30.318Z,95074.47
2018-04-30T22:46:56.293Z,95069.52
2018-04-30T22:49:22.316Z,95069.12
2018-04-30T22:51:48.296Z,95060.06
2018-04-30T22:54:14.253Z,95061.03
2018-04-30T22:56:40.235Z,95055.52
2018-04-30T22:59:06.249Z,95062.82
2018-04-30T23:01:32.220Z,95064.77
2018-04-30T23:03:58.205Z,95057.47
2018-04-30T23:06:24.193Z,95063.16
2018-04-30T23:08:50.130Z,95058.64
2018-04-30T23:11:16.147Z,95058.05
2018-04-30T23:13:42.086Z,95052.52
2018-04-30T23:16:08.068Z,95055.88
2018-04-30T23:18:34.047Z,95050.53
2018-04-30T23:21:00.085Z,95052.31
2018-04-30T23:23:26.100Z,95049.16
2018-04-30T23:25:52.051Z,95056.23
2018-04-30T23:28:18.054Z,95053.30
2018-04-30T23:30:44.004Z,95046.96
2018-04-30T23:33:10.011Z,95048.75
2018-04-30T23:35:35.984Z,95046.96
2018-04-30T23:38:01.991Z,95047.56
2018-04-30T23:40:27.958Z,95046.19
2018-04-30T23:42:53.970Z,95042.62
2018-04-30T23:45:19.949Z,95045.38
2018-04-30T23:47:46.127Z,95047.16
2018-04-30T23:50:12.101Z,95048.14
2018-04-30T23:52:38.110Z,95046.36
2018-04-30T23:55:04.061Z,95049.13
2018-04-30T23:57:30.197Z,95048.31
2018-04-30T23:59:56.183Z,95044.17
